createdAt,value
2023-02-19T00:01:10.744Z,9.78
2023-02-19T00:03:38.417Z,9.77
2023-02-19T00:06:07.536Z,9.78
2023-02-19T00:08:35.368Z,9.77
2023-02-19T00:11:10.261Z,9.78
2023-02-19T00:13:41.980Z,9.76
2023-02-19T00:16:32.872Z,9.77
2023-02-19T00:19:01.034Z,9.75
2023-02-19T00:21:28.356Z,9.75
2023-02-19T00:23:57.714Z,9.80
2023-02-19T00:26:24.316Z,9.75
2023-02-19T00:28:52.715Z,9.75
2023-02-19T00:31:25.080Z,9.76
2023-02-19T00:33:57.116Z,9.74
2023-02-19T00:36:25.646Z,9.76
2023-02-19T00:38:52.382Z,9.78
2023-02-19T00:41:21.228Z,9.76
2023-02-19T00:43:59.377Z,9.76
2023-02-19T00:46:27.611Z,9.74
2023-02-19T00:48:54.753Z,9.76
2023-02-19T00:51:25.903Z,9.76
2023-02-19T00:53:53.206Z,9.70
2023-02-19T00:56:19.900Z,9.69
2023-02-19T00:58:48.428Z,9.69
2023-02-19T01:01:16.455Z,9.69
2023-02-19T01:03:44.715Z,9.78
2023-02-19T01:06:14.088Z,9.73
2023-02-19T01:08:40.680Z,9.71
2023-02-19T01:11:08.634Z,9.75
2023-02-19T01:13:36.287Z,9.78
2023-02-19T01:16:23.934Z,9.67
2023-02-19T01:18:51.141Z,9.76
2023-02-19T01:21:24.156Z,9.67
2023-02-19T01:23:52.017Z,9.77
2023-02-19T01:26:24.292Z,9.74
2023-02-19T01:28:51.568Z,9.70
2023-02-19T01:31:23.944Z,9.72
2023-02-19T01:33:54.420Z,9.66
2023-02-19T01:36:22.333Z,9.68
2023-02-19T01:38:49.749Z,9.71
2023-02-19T01:41:22.897Z,9.68
2023-02-19T01:43:58.662Z,9.73
2023-02-19T01:46:29.780Z,9.68
2023-02-19T01:48:59.891Z,9.76
2023-02-19T01:51:27.798Z,9.73
2023-02-19T01:53:59.089Z,9.70
2023-02-19T01:56:27.191Z,9.71
2023-02-19T01:58:54.395Z,9.75
2023-02-19T02:01:20.967Z,9.70
2023-02-19T02:03:49.610Z,9.73
2023-02-19T02:06:28.424Z,9.72
2023-02-19T02:09:16.286Z,9.70
2023-02-19T02:11:47.573Z,9.71
2023-02-19T02:14:16.862Z,9.69
2023-02-19T02:17:15.852Z,9.70
2023-02-19T02:20:04.341Z,9.68
2023-02-19T02:22:59.468Z,9.64
2023-02-19T02:25:45.167Z,9.67
2023-02-19T02:28:30.550Z,9.72
2023-02-19T02:31:13.854Z,9.62
2023-02-19T02:33:54.444Z,9.70
2023-02-19T02:36:31.169Z,9.69
2023-02-19T02:38:59.341Z,9.65
2023-02-19T02:41:26.394Z,9.71
2023-02-19T02:43:52.903Z,9.64
2023-02-19T02:46:25.473Z,9.65
2023-02-19T02:49:05.363Z,9.71
2023-02-19T02:51:42.754Z,9.71
2023-02-19T02:54:41.200Z,9.71
2023-02-19T02:57:14.754Z,9.70
2023-02-19T02:59:56.646Z,9.70
2023-02-19T03:02:28.480Z,9.68
2023-02-19T03:05:20.371Z,9.68
2023-02-19T03:08:11.828Z,9.62
2023-02-19T03:10:51.332Z,9.63
2023-02-19T03:13:56.549Z,9.62
2023-02-19T03:16:47.012Z,9.62
2023-02-19T03:19:20.658Z,9.63
2023-02-19T03:21:51.672Z,9.63
2023-02-19T03:24:41.378Z,9.71
2023-02-19T03:27:12.726Z,9.66
2023-02-19T03:29:45.254Z,9.67
2023-02-19T03:32:20.040Z,9.63
2023-02-19T03:34:57.327Z,9.63
2023-02-19T03:37:32.910Z,9.60
2023-02-19T03:40:01.304Z,9.59
2023-02-19T03:43:06.098Z,9.62
2023-02-19T03:45:35.635Z,9.64
2023-02-19T03:48:18.112Z,9.62
2023-02-19T03:51:08.507Z,9.62
2023-02-19T03:53:50.792Z,9.57
2023-02-19T03:56:30.841Z,9.57
2023-02-19T03:59:04.191Z,9.58
2023-02-19T04:01:43.877Z,9.56
2023-02-19T04:04:11.945Z,9.56
2023-02-19T04:06:42.250Z,9.55
2023-02-19T04:09:12.952Z,9.54
2023-02-19T04:11:41.565Z,9.54
2023-02-19T04:14:58.791Z,9.54
2023-02-19T04:17:37.346Z,9.59
2023-02-19T04:20:08.714Z,9.53
2023-02-19T04:22:37.233Z,9.52
2023-02-19T04:25:04.456Z,9.53
2023-02-19T04:27:31.237Z,9.54
2023-02-19T04:29:57.733Z,9.52
2023-02-19T04:32:24.309Z,9.52
2023-02-19T04:34:52.826Z,9.51
2023-02-19T04:37:20.564Z,9.49
2023-02-19T04:39:48.633Z,9.50
2023-02-19T04:42:15.471Z,9.52
2023-02-19T04:44:42.011Z,9.51
2023-02-19T04:47:08.623Z,9.52
2023-02-19T04:49:35.197Z,9.52
2023-02-19T04:52:01.769Z,9.51
2023-02-19T04:54:28.310Z,9.49
2023-02-19T04:56:54.875Z,9.48
2023-02-19T04:59:21.383Z,9.52
2023-02-19T05:01:47.924Z,9.53
2023-02-19T05:04:14.563Z,9.56
2023-02-19T05:06:41.201Z,9.44
2023-02-19T05:09:07.875Z,9.54
2023-02-19T05:11:34.457Z,9.53
2023-02-19T05:14:01.343Z,9.53
2023-02-19T05:16:27.932Z,9.53
2023-02-19T05:18:54.475Z,9.46
2023-02-19T05:21:21.116Z,9.47
2023-02-19T05:23:47.616Z,9.55
2023-02-19T05:26:18.797Z,9.52
2023-02-19T05:28:46.748Z,9.52
2023-02-19T05:31:14.231Z,9.51
2023-02-19T05:33:42.960Z,9.51
2023-02-19T05:36:12.898Z,9.51
2023-02-19T05:38:40.615Z,9.49
2023-02-19T05:41:15.513Z,9.49
2023-02-19T05:43:43.397Z,9.50
2023-02-19T05:46:13.688Z,9.50
2023-02-19T05:48:40.669Z,9.51
2023-02-19T05:51:13.717Z,9.50
2023-02-19T05:53:41.308Z,9.49
2023-02-19T05:56:26.070Z,9.49
2023-02-19T05:58:53.721Z,9.48
2023-02-19T06:01:23.014Z,9.48
2023-02-19T06:03:49.604Z,9.47
2023-02-19T06:06:18.253Z,9.47
2023-02-19T06:08:45.148Z,9.46
2023-02-19T06:11:12.023Z,9.47
2023-02-19T06:13:38.671Z,9.46
2023-02-19T06:16:07.429Z,9.45
2023-02-19T06:18:34.330Z,9.42
2023-02-19T06:21:06.025Z,9.45
2023-02-19T06:23:32.813Z,9.43
2023-02-19T06:26:17.676Z,9.44
2023-02-19T06:28:45.334Z,9.42
2023-02-19T06:31:12.392Z,9.42
2023-02-19T06:33:40.573Z,9.42
2023-02-19T06:36:13.161Z,9.42
2023-02-19T06:38:39.763Z,9.40
2023-02-19T06:41:08.108Z,9.43
2023-02-19T06:43:35.001Z,9.41
2023-02-19T06:46:03.693Z,9.42
2023-02-19T06:48:31.592Z,9.39
2023-02-19T06:50:58.650Z,9.39
2023-02-19T06:53:25.356Z,9.39
2023-02-19T06:56:04.487Z,9.39
2023-02-19T06:58:32.059Z,9.39
2023-02-19T07:00:59.324Z,9.39
2023-02-19T07:03:26.524Z,9.39
2023-02-19T07:05:53.152Z,9.39
2023-02-19T07:08:20.049Z,9.38
2023-02-19T07:10:53.596Z,9.37
2023-02-19T07:13:20.214Z,9.36
2023-02-19T07:15:46.746Z,9.37
2023-02-19T07:18:13.332Z,9.35
2023-02-19T07:20:39.985Z,9.37
2023-02-19T07:23:06.539Z,9.37
2023-02-19T07:25:33.098Z,9.38
2023-02-19T07:27:59.744Z,9.39
2023-02-19T07:30:26.432Z,9.38
2023-02-19T07:32:53.014Z,9.39
2023-02-19T07:35:19.549Z,9.39
2023-02-19T07:37:46.147Z,9.41
2023-02-19T07:40:12.718Z,9.40
2023-02-19T07:42:39.407Z,9.42
2023-02-19T07:45:06.339Z,9.42
2023-02-19T07:47:32.908Z,9.41
2023-02-19T07:49:59.475Z,9.35
2023-02-19T07:52:26.110Z,9.43
2023-02-19T07:54:52.637Z,9.44
2023-02-19T07:57:19.281Z,9.43
2023-02-19T07:59:45.916Z,9.44
2023-02-19T08:02:38.654Z,9.44
2023-02-19T08:05:06.621Z,9.44
2023-02-19T08:07:36.864Z,9.44
2023-02-19T08:10:23.054Z,9.44
2023-02-19T08:13:18.951Z,9.45
2023-02-19T08:15:46.937Z,9.46
2023-02-19T08:18:16.278Z,9.47
2023-02-19T08:20:43.628Z,9.48
2023-02-19T08:23:11.558Z,9.49
2023-02-19T08:25:39.395Z,9.51
2023-02-19T08:28:07.655Z,9.51
2023-02-19T08:30:35.048Z,9.53
2023-02-19T08:33:02.503Z,9.54
2023-02-19T08:35:29.320Z,9.52
2023-02-19T08:37:59.297Z,9.55
2023-02-19T08:40:27.016Z,9.55
2023-02-19T08:42:53.753Z,9.57
2023-02-19T08:45:20.261Z,9.59
2023-02-19T08:47:46.928Z,9.59
2023-02-19T08:50:13.458Z,9.61
2023-02-19T08:52:39.991Z,9.63
2023-02-19T08:55:07.126Z,9.65
2023-02-19T08:57:37.621Z,9.63
2023-02-19T09:00:06.467Z,9.65
2023-02-19T09:02:33.357Z,9.68
2023-02-19T09:04:59.906Z,9.68
2023-02-19T09:07:26.726Z,9.70
2023-02-19T09:09:53.444Z,9.71
2023-02-19T09:12:20.524Z,9.73
2023-02-19T09:14:47.173Z,9.75
2023-02-19T09:17:13.747Z,9.72
2023-02-19T09:19:40.367Z,9.78
2023-02-19T09:22:06.977Z,9.77
2023-02-19T09:24:33.605Z,9.75
2023-02-19T09:27:00.190Z,9.80
2023-02-19T09:29:28.282Z,9.77
2023-02-19T09:31:59.877Z,9.79
2023-02-19T09:34:28.204Z,9.81
2023-02-19T09:36:55.258Z,9.85
2023-02-19T09:39:21.920Z,9.82
2023-02-19T09:41:58.239Z,9.86
2023-02-19T09:44:29.229Z,9.86
2023-02-19T09:46:56.435Z,9.86
2023-02-19T09:49:27.192Z,9.88
2023-02-19T09:52:00.320Z,9.90
2023-02-19T09:54:30.522Z,9.91
2023-02-19T09:57:00.207Z,9.92
2023-02-19T09:59:31.712Z,9.90
2023-02-19T10:02:04.311Z,9.90
2023-02-19T10:04:30.897Z,9.92
2023-02-19T10:07:03.339Z,9.94
2023-02-19T10:09:30.988Z,9.93
2023-02-19T10:11:59.479Z,9.92
2023-02-19T10:14:34.802Z,9.93
2023-02-19T10:17:05.226Z,9.90
2023-02-19T10:19:33.489Z,9.92
2023-02-19T10:22:02.696Z,9.98
2023-02-19T10:24:30.262Z,9.99
2023-02-19T10:26:57.061Z,10.02
2023-02-19T10:29:24.753Z,10.03
2023-02-19T10:32:17.085Z,10.10
2023-02-19T10:34:43.719Z,10.13
2023-02-19T10:37:18.552Z,10.15
2023-02-19T10:39:47.705Z,10.11
2023-02-19T10:42:22.046Z,10.11
2023-02-19T10:44:58.455Z,10.14
2023-02-19T10:47:27.303Z,10.16
2023-02-19T10:49:58.310Z,10.18
2023-02-19T10:52:28.288Z,10.18
2023-02-19T10:55:24.606Z,10.20
2023-02-19T10:57:51.331Z,10.19
2023-02-19T11:00:30.118Z,10.23
2023-02-19T11:03:21.119Z,10.25
2023-02-19T11:06:09.158Z,10.33
2023-02-19T11:08:56.092Z,10.30
2023-02-19T11:11:27.677Z,10.29
2023-02-19T11:13:59.293Z,10.26
2023-02-19T11:16:42.288Z,10.22
2023-02-19T11:19:39.973Z,10.27
2023-02-19T11:22:28.642Z,10.29
2023-02-19T11:24:59.335Z,10.26
2023-02-19T11:27:26.145Z,10.22
2023-02-19T11:29:52.734Z,10.25
2023-02-19T11:32:25.670Z,10.26
2023-02-19T11:35:13.312Z,10.26
2023-02-19T11:37:57.713Z,10.27
2023-02-19T11:40:43.994Z,10.25
2023-02-19T11:43:29.443Z,10.26
2023-02-19T11:46:26.284Z,10.27
2023-02-19T11:49:20.519Z,10.28
2023-02-19T11:51:52.740Z,10.26
2023-02-19T11:54:38.266Z,10.25
2023-02-19T11:57:23.729Z,10.22
2023-02-19T11:59:53.291Z,10.26
2023-02-19T12:02:47.306Z,10.22
2023-02-19T12:05:47.981Z,10.16
2023-02-19T12:08:37.811Z,10.18
2023-02-19T12:11:19.720Z,10.19
2023-02-19T12:13:56.505Z,10.22
2023-02-19T12:16:39.860Z,10.21
2023-02-19T12:19:42.289Z,10.17
2023-02-19T12:22:34.554Z,10.18
2023-02-19T12:25:10.210Z,10.27
2023-02-19T12:28:31.647Z,10.24
2023-02-19T12:31:00.968Z,10.23
2023-02-19T12:33:39.275Z,10.23
2023-02-19T12:36:30.435Z,10.21
2023-02-19T12:39:34.354Z,10.18
2023-02-19T12:42:15.933Z,10.24
2023-02-19T12:44:47.831Z,10.30
2023-02-19T12:47:23.925Z,10.26
2023-02-19T12:50:04.531Z,10.34
2023-02-19T12:52:36.713Z,10.37
2023-02-19T12:55:32.121Z,10.33
2023-02-19T12:58:04.310Z,10.40
2023-02-19T13:00:43.073Z,10.36
2023-02-19T13:03:34.708Z,10.37
2023-02-19T13:06:04.436Z,10.42
2023-02-19T13:09:05.962Z,10.31
2023-02-19T13:11:49.341Z,10.31
2023-02-19T13:14:34.234Z,10.33
2023-02-19T13:17:09.342Z,10.34
2023-02-19T13:19:37.279Z,10.38
2023-02-19T13:22:34.978Z,10.39
2023-02-19T13:25:02.792Z,10.31
2023-02-19T13:28:05.036Z,10.31
2023-02-19T13:30:48.811Z,10.36
2023-02-19T13:33:40.526Z,10.35
2023-02-19T13:36:27.260Z,10.30
2023-02-19T13:38:57.328Z,10.25
2023-02-19T13:41:29.966Z,10.31
2023-02-19T13:44:03.511Z,10.33
2023-02-19T13:46:37.835Z,10.35
2023-02-19T13:49:22.866Z,10.38
2023-02-19T13:51:56.766Z,10.41
2023-02-19T13:54:40.092Z,10.44
2023-02-19T13:57:22.266Z,10.43
2023-02-19T13:59:56.433Z,10.44
2023-02-19T14:02:23.082Z,10.43
2023-02-19T14:04:55.964Z,10.47
2023-02-19T14:07:22.444Z,10.47
2023-02-19T14:09:49.423Z,10.50
2023-02-19T14:12:16.417Z,10.52
2023-02-19T14:14:46.288Z,10.50
2023-02-19T14:17:37.755Z,10.53
2023-02-19T14:20:11.573Z,10.57
2023-02-19T14:22:49.906Z,10.57
2023-02-19T14:25:29.285Z,10.60
2023-02-19T14:28:04.939Z,10.67
2023-02-19T14:30:34.320Z,10.63
2023-02-19T14:33:10.499Z,10.63
2023-02-19T14:35:43.426Z,10.61
2023-02-19T14:38:35.616Z,10.58
2023-02-19T14:41:03.040Z,10.61
2023-02-19T14:43:30.623Z,10.61
2023-02-19T14:46:01.767Z,10.60
2023-02-19T14:48:37.669Z,10.62
2023-02-19T14:51:14.130Z,10.62
2023-02-19T14:53:44.886Z,10.61
2023-02-19T14:56:28.384Z,10.60
2023-02-19T14:59:13.151Z,10.60
2023-02-19T15:01:40.483Z,10.56
2023-02-19T15:04:19.596Z,10.53
2023-02-19T15:06:46.358Z,10.53
2023-02-19T15:09:14.313Z,10.56
2023-02-19T15:11:43.074Z,10.52
2023-02-19T15:14:20.564Z,10.51
2023-02-19T15:16:47.832Z,10.51
2023-02-19T15:19:17.124Z,10.51
2023-02-19T15:21:47.580Z,10.52
2023-02-19T15:24:16.909Z,10.50
2023-02-19T15:26:50.303Z,10.49
2023-02-19T15:29:19.733Z,10.53
2023-02-19T15:31:49.409Z,10.52
2023-02-19T15:34:18.567Z,10.49
2023-02-19T15:36:46.116Z,10.41
2023-02-19T15:39:22.787Z,10.41
2023-02-19T15:42:00.229Z,10.43
2023-02-19T15:45:16.126Z,10.47
2023-02-19T15:47:55.715Z,10.38
2023-02-19T15:50:35.990Z,10.42
2023-02-19T15:53:10.003Z,10.42
2023-02-19T15:55:42.348Z,10.41
2023-02-19T15:58:38.222Z,10.37
2023-02-19T16:01:08.271Z,10.36
2023-02-19T16:03:35.681Z,10.34
2023-02-19T16:06:14.864Z,10.33
2023-02-19T16:09:03.064Z,10.27
2023-02-19T16:11:35.728Z,10.32
2023-02-19T16:14:33.636Z,10.30
2023-02-19T16:17:12.728Z,10.28
2023-02-19T16:19:44.462Z,10.28
2023-02-19T16:22:13.555Z,10.23
2023-02-19T16:24:49.186Z,10.23
2023-02-19T16:27:30.395Z,10.23
2023-02-19T16:29:57.690Z,10.14
2023-02-19T16:32:24.489Z,10.10
2023-02-19T16:34:51.961Z,10.12
2023-02-19T16:37:35.329Z,10.10
2023-02-19T16:40:07.804Z,10.03
2023-02-19T16:43:06.488Z,10.03
2023-02-19T16:45:33.535Z,10.08
2023-02-19T16:48:00.240Z,10.05
2023-02-19T16:50:27.279Z,9.99
2023-02-19T16:52:56.266Z,10.00
2023-02-19T16:55:23.069Z,9.96
2023-02-19T16:57:50.353Z,9.98
2023-02-19T17:00:25.698Z,9.90
2023-02-19T17:02:54.992Z,9.87
2023-02-19T17:05:22.868Z,9.87
2023-02-19T17:07:50.027Z,9.77
2023-02-19T17:10:18.553Z,9.80
2023-02-19T17:12:45.213Z,9.79
2023-02-19T17:15:12.697Z,9.83
2023-02-19T17:17:39.349Z,9.81
2023-02-19T17:20:24.043Z,9.79
2023-02-19T17:22:50.681Z,9.73
2023-02-19T17:25:17.237Z,9.72
2023-02-19T17:27:43.853Z,9.75
2023-02-19T17:30:16.570Z,9.71
2023-02-19T17:32:43.150Z,9.59
2023-02-19T17:35:09.709Z,9.60
2023-02-19T17:37:36.231Z,9.58
2023-02-19T17:40:03.386Z,9.62
2023-02-19T17:42:29.931Z,9.62
2023-02-19T17:44:56.570Z,9.54
2023-02-19T17:47:23.149Z,9.59
2023-02-19T17:49:49.721Z,9.54
2023-02-19T17:52:17.619Z,9.67
2023-02-19T17:54:44.237Z,9.71
2023-02-19T17:57:10.839Z,9.68
2023-02-19T17:59:37.393Z,9.65
2023-02-19T18:02:03.947Z,9.68
2023-02-19T18:04:30.595Z,9.74
2023-02-19T18:06:57.197Z,9.79
2023-02-19T18:09:24.077Z,9.82
2023-02-19T18:11:50.644Z,9.81
2023-02-19T18:14:17.250Z,9.83
2023-02-19T18:16:50.617Z,9.83
2023-02-19T18:19:17.791Z,9.79
2023-02-19T18:21:44.360Z,9.79
2023-02-19T18:24:10.949Z,9.82
2023-02-19T18:26:37.549Z,9.79
2023-02-19T18:29:05.680Z,9.72
2023-02-19T18:31:34.237Z,9.78
2023-02-19T18:34:00.824Z,9.76
2023-02-19T18:36:27.383Z,9.70
2023-02-19T18:38:54.026Z,9.76
2023-02-19T18:41:21.216Z,9.67
2023-02-19T18:43:48.207Z,9.68
2023-02-19T18:46:15.164Z,9.68
2023-02-19T18:48:42.122Z,9.65
2023-02-19T18:51:13.513Z,9.65
2023-02-19T18:53:42.811Z,9.69
2023-02-19T18:56:09.443Z,9.71
2023-02-19T18:58:36.107Z,9.73
2023-02-19T19:01:02.764Z,9.64
2023-02-19T19:03:31.319Z,9.59
2023-02-19T19:05:58.560Z,9.59
2023-02-19T19:08:25.278Z,9.61
2023-02-19T19:10:51.831Z,9.64
2023-02-19T19:13:18.387Z,9.64
2023-02-19T19:15:49.910Z,9.70
2023-02-19T19:18:16.549Z,9.68
2023-02-19T19:20:43.140Z,9.67
2023-02-19T19:23:09.717Z,9.68
2023-02-19T19:25:37.237Z,9.65
2023-02-19T19:28:04.032Z,9.62
2023-02-19T19:30:30.970Z,9.60
2023-02-19T19:32:58.020Z,9.61
2023-02-19T19:35:24.668Z,9.57
2023-02-19T19:37:51.409Z,9.61
2023-02-19T19:40:18.531Z,9.60
2023-02-19T19:42:45.848Z,9.61
2023-02-19T19:45:13.779Z,9.57
2023-02-19T19:47:40.429Z,9.52
2023-02-19T19:50:07.223Z,9.59
2023-02-19T19:52:33.798Z,9.55
2023-02-19T19:55:00.483Z,9.51
2023-02-19T19:57:27.051Z,9.51
2023-02-19T19:59:53.654Z,9.53
2023-02-19T20:02:20.430Z,9.52
2023-02-19T20:04:47.071Z,9.51
2023-02-19T20:07:13.629Z,9.52
2023-02-19T20:09:40.257Z,9.46
2023-02-19T20:12:07.268Z,9.43
2023-02-19T20:14:33.970Z,9.45
2023-02-19T20:17:00.523Z,9.41
2023-02-19T20:19:27.109Z,9.34
2023-02-19T20:21:54.253Z,9.33
2023-02-19T20:24:28.539Z,9.36
2023-02-19T20:27:00.541Z,9.36
2023-02-19T20:29:28.970Z,9.36
2023-02-19T20:31:59.073Z,9.28
2023-02-19T20:34:26.785Z,9.29
2023-02-19T20:36:53.783Z,9.30
2023-02-19T20:39:21.620Z,9.31
2023-02-19T20:41:49.994Z,9.29
2023-02-19T20:44:17.352Z,9.27
2023-02-19T20:46:45.814Z,9.25
2023-02-19T20:49:13.362Z,9.20
2023-02-19T20:51:48.265Z,9.18
2023-02-19T20:54:16.823Z,9.16
2023-02-19T20:56:47.837Z,9.13
2023-02-19T20:59:16.144Z,9.11
2023-02-19T21:01:43.355Z,9.09
2023-02-19T21:04:10.506Z,9.07
2023-02-19T21:06:37.317Z,9.01
2023-02-19T21:09:05.670Z,8.97
2023-02-19T21:11:33.069Z,8.95
2023-02-19T21:14:00.027Z,8.93
2023-02-19T21:16:31.282Z,8.91
2023-02-19T21:18:58.726Z,8.90
2023-02-19T21:21:26.451Z,8.87
2023-02-19T21:23:57.585Z,8.84
2023-02-19T21:26:25.196Z,8.80
2023-02-19T21:28:52.285Z,8.79
2023-02-19T21:31:20.710Z,8.78
2023-02-19T21:33:47.462Z,8.76
2023-02-19T21:36:14.366Z,8.72
2023-02-19T21:38:41.037Z,8.68
2023-02-19T21:41:07.654Z,8.66
2023-02-19T21:43:34.230Z,8.64
2023-02-19T21:46:00.847Z,8.55
2023-02-19T21:48:27.460Z,8.47
2023-02-19T21:50:54.059Z,8.38
2023-02-19T21:53:20.851Z,8.36
2023-02-19T21:55:57.724Z,8.29
2023-02-19T21:58:25.920Z,8.24
2023-02-19T22:00:53.911Z,8.28
2023-02-19T22:03:20.633Z,8.33
2023-02-19T22:05:47.242Z,8.39
2023-02-19T22:08:15.529Z,8.38
2023-02-19T22:10:42.480Z,8.39
2023-02-19T22:13:09.801Z,8.44
2023-02-19T22:15:37.054Z,8.40
2023-02-19T22:18:03.990Z,8.42
2023-02-19T22:20:30.629Z,8.42
2023-02-19T22:22:57.222Z,8.46
2023-02-19T22:25:23.808Z,8.43
2023-02-19T22:27:50.444Z,8.40
2023-02-19T22:30:17.472Z,8.40
2023-02-19T22:32:44.029Z,8.40
2023-02-19T22:35:10.693Z,8.40
2023-02-19T22:37:37.245Z,8.40
2023-02-19T22:40:04.054Z,8.39
2023-02-19T22:42:30.688Z,8.35
2023-02-19T22:44:57.327Z,8.35
2023-02-19T22:47:23.925Z,8.36
2023-02-19T22:49:50.544Z,8.33
2023-02-19T22:52:17.579Z,8.30
2023-02-19T22:54:44.205Z,8.28
2023-02-19T22:57:10.830Z,8.28
2023-02-19T22:59:37.390Z,8.24
2023-02-19T23:02:04.007Z,8.23
2023-02-19T23:04:30.592Z,8.20
2023-02-19T23:06:57.161Z,8.17
2023-02-19T23:09:26.678Z,8.18
2023-02-19T23:12:00.369Z,8.16
2023-02-19T23:14:26.915Z,8.15
2023-02-19T23:16:53.508Z,8.11
2023-02-19T23:19:20.099Z,8.08
2023-02-19T23:21:46.996Z,8.06
2023-02-19T23:24:14.524Z,8.04
2023-02-19T23:26:46.124Z,8.00
2023-02-19T23:29:19.107Z,8.00
2023-02-19T23:31:46.286Z,8.02
2023-02-19T23:34:14.002Z,7.98
2023-02-19T23:36:45.518Z,7.95
2023-02-19T23:39:14.606Z,7.92
2023-02-19T23:41:51.967Z,7.88
2023-02-19T23:44:19.429Z,7.89
2023-02-19T23:46:46.248Z,7.87
2023-02-19T23:49:13.578Z,7.82
2023-02-19T23:51:40.522Z,7.81
2023-02-19T23:54:07.374Z,7.78
2023-02-19T23:56:34.291Z,7.74
2023-02-19T23:59:01.026Z,7.77
